createdAt,value
2018-05-11T00:01:05.769Z,12.80
2018-05-11T00:03:33.311Z,11.20
2018-05-11T00:06:00.885Z,12.80
2018-05-11T00:08:28.446Z,12.50
2018-05-11T00:10:56.007Z,11.97
2018-05-11T00:13:23.573Z,12.03
2018-05-11T00:15:51.149Z,12.00
2018-05-11T00:18:18.697Z,11.50
2018-05-11T00:20:46.267Z,11.70
2018-05-11T00:23:13.803Z,11.10
2018-05-11T00:25:41.379Z,11.67
2018-05-11T00:28:08.908Z,11.93
2018-05-11T00:30:37.611Z,11.10
2018-05-11T00:33:05.159Z,10.23
2018-05-11T00:35:33.518Z,10.30
2018-05-11T00:38:01.058Z,10.83
2018-05-11T00:40:28.596Z,11.23
2018-05-11T00:42:56.162Z,9.93
2018-05-11T00:45:23.692Z,9.67
2018-05-11T00:47:51.250Z,10.40
2018-05-11T00:50:18.810Z,10.23
2018-05-11T00:52:46.369Z,9.93
2018-05-11T00:55:25.969Z,10.43
2018-05-11T00:57:53.527Z,11.03
2018-05-11T01:00:21.081Z,10.50
2018-05-11T01:02:48.663Z,10.53
2018-05-11T01:05:16.216Z,9.27
2018-05-11T01:07:43.797Z,10.83
2018-05-11T01:10:12.118Z,9.60
2018-05-11T01:12:39.681Z,8.83
2018-05-11T01:15:07.215Z,8.17
2018-05-11T01:17:34.769Z,9.63
2018-05-11T01:20:03.443Z,9.30
2018-05-11T01:22:31.026Z,9.07
2018-05-11T01:24:58.568Z,8.00
2018-05-11T01:27:26.872Z,8.00
2018-05-11T01:29:54.440Z,7.30
2018-05-11T01:32:21.978Z,8.47
2018-05-11T01:34:49.544Z,7.57
2018-05-11T01:37:17.099Z,8.50
2018-05-11T01:39:44.683Z,7.67
2018-05-11T01:42:12.233Z,7.57
2018-05-11T01:44:39.785Z,7.67
2018-05-11T01:47:07.330Z,7.40
2018-05-11T01:49:34.902Z,7.37
2018-05-11T01:52:02.456Z,7.50
2018-05-11T01:54:30.058Z,8.17
2018-05-11T01:56:57.618Z,7.33
2018-05-11T01:59:25.181Z,8.13
2018-05-11T02:01:52.737Z,6.43
2018-05-11T02:04:20.326Z,7.13
2018-05-11T02:06:47.863Z,7.33
2018-05-11T02:09:15.417Z,7.43
2018-05-11T02:11:45.844Z,7.50
2018-05-11T02:14:13.411Z,6.70
2018-05-11T02:16:40.981Z,6.70
2018-05-11T02:19:08.517Z,7.03
2018-05-11T02:21:36.085Z,7.57
2018-05-11T02:24:03.644Z,7.27
2018-05-11T02:26:31.208Z,8.63
2018-05-11T02:28:58.765Z,7.20
2018-05-11T02:31:26.324Z,8.57
2018-05-11T02:33:53.902Z,7.73
2018-05-11T02:36:21.462Z,7.33
2018-05-11T02:38:48.995Z,7.40
2018-05-11T02:41:16.572Z,7.27
2018-05-11T02:43:44.113Z,8.53
2018-05-11T02:46:11.653Z,7.77
2018-05-11T02:48:39.238Z,8.67
2018-05-11T02:51:06.783Z,7.33
2018-05-11T02:53:34.384Z,6.70
2018-05-11T02:56:01.922Z,7.77
2018-05-11T02:58:29.493Z,7.60
2018-05-11T03:00:57.038Z,7.77
2018-05-11T03:03:24.616Z,7.87
2018-05-11T03:05:52.965Z,6.90
2018-05-11T03:08:21.268Z,7.33
2018-05-11T03:10:48.802Z,8.33
2018-05-11T03:13:16.370Z,7.77
2018-05-11T03:15:43.912Z,7.40
2018-05-11T03:18:11.478Z,7.27
2018-05-11T03:20:39.038Z,7.83
2018-05-11T03:23:06.631Z,6.40
2018-05-11T03:25:34.167Z,7.37
2018-05-11T03:28:01.703Z,8.20
2018-05-11T03:30:29.290Z,9.07
2018-05-11T03:32:56.834Z,7.47
2018-05-11T03:35:24.392Z,7.67
2018-05-11T03:37:51.944Z,7.63
2018-05-11T03:40:20.305Z,7.47
2018-05-11T03:42:47.868Z,7.23
2018-05-11T03:45:15.427Z,8.13
2018-05-11T03:47:42.985Z,7.93
2018-05-11T03:50:10.548Z,7.50
2018-05-11T03:52:38.104Z,7.43
2018-05-11T03:55:05.725Z,8.90
2018-05-11T03:57:33.297Z,8.43
2018-05-11T04:00:00.963Z,7.53
2018-05-11T04:02:40.401Z,6.87
2018-05-11T04:05:19.687Z,8.33
2018-05-11T04:07:59.848Z,7.93
2018-05-11T04:10:28.221Z,7.40
2018-05-11T04:12:55.769Z,8.00
2018-05-11T04:15:24.084Z,8.03
2018-05-11T04:17:51.646Z,7.73
2018-05-11T04:20:19.198Z,7.83
2018-05-11T04:22:46.769Z,6.87
2018-05-11T04:25:14.321Z,7.40
2018-05-11T04:27:41.888Z,7.70
2018-05-11T04:30:09.500Z,7.00
2018-05-11T04:32:37.029Z,7.93
2018-05-11T04:35:04.590Z,7.40
2018-05-11T04:37:32.147Z,8.30
2018-05-11T04:39:59.696Z,7.30
2018-05-11T04:42:27.287Z,7.53
2018-05-11T04:44:54.834Z,7.90
2018-05-11T04:47:22.393Z,8.27
2018-05-11T04:49:50.045Z,7.70
2018-05-11T04:52:17.610Z,7.57
2018-05-11T04:54:45.177Z,7.43
2018-05-11T04:57:12.709Z,7.60
2018-05-11T04:59:40.277Z,7.80
2018-05-11T05:02:07.833Z,7.47
2018-05-11T05:04:35.383Z,8.03
2018-05-11T05:07:02.927Z,8.43
2018-05-11T05:09:31.250Z,7.73
2018-05-11T05:11:58.788Z,7.63
2018-05-11T05:14:26.365Z,6.53
2018-05-11T05:16:53.899Z,6.57
2018-05-11T05:19:22.253Z,7.50
2018-05-11T05:21:49.796Z,6.33
2018-05-11T05:24:17.346Z,6.87
2018-05-11T05:26:44.915Z,8.07
2018-05-11T05:29:12.453Z,7.70
2018-05-11T05:31:40.008Z,6.10
2018-05-11T05:34:07.535Z,8.40
2018-05-11T05:36:35.100Z,7.23
2018-05-11T05:39:02.649Z,6.03
2018-05-11T05:41:30.976Z,6.30
2018-05-11T05:43:58.509Z,7.27
2018-05-11T05:46:26.076Z,7.03
2018-05-11T05:48:53.608Z,6.83
2018-05-11T05:51:21.164Z,6.70
2018-05-11T05:53:49.465Z,7.63
2018-05-11T05:56:17.023Z,7.47
2018-05-11T05:58:44.557Z,6.73
2018-05-11T06:01:12.876Z,7.63
2018-05-11T06:03:40.415Z,7.43
2018-05-11T06:06:07.962Z,7.30
2018-05-11T06:08:36.251Z,6.00
2018-05-11T06:11:03.804Z,6.63
2018-05-11T06:13:31.339Z,6.87
2018-05-11T06:15:58.892Z,7.00
2018-05-11T06:18:26.440Z,6.63
2018-05-11T06:20:54.004Z,5.80
2018-05-11T06:23:21.549Z,5.47
2018-05-11T06:25:50.096Z,6.10
2018-05-11T06:28:17.644Z,6.10
2018-05-11T06:30:47.167Z,5.90
2018-05-11T06:33:14.727Z,5.27
2018-05-11T06:35:42.938Z,6.40
2018-05-11T06:38:10.480Z,6.40
2018-05-11T06:40:38.105Z,5.80
2018-05-11T06:43:05.605Z,6.00
2018-05-11T06:45:33.157Z,5.67
2018-05-11T06:48:00.748Z,7.23
2018-05-11T06:50:28.303Z,5.23
2018-05-11T06:52:55.859Z,5.67
2018-05-11T06:55:23.397Z,6.20
2018-05-11T06:57:50.975Z,5.77
2018-05-11T07:00:18.520Z,7.13
2018-05-11T07:02:46.069Z,6.87
2018-05-11T07:05:13.600Z,5.47
2018-05-11T07:07:42.041Z,5.87
2018-05-11T07:10:09.620Z,6.07
2018-05-11T07:12:37.169Z,4.93
2018-05-11T07:15:04.727Z,4.80
2018-05-11T07:17:32.285Z,6.07
2018-05-11T07:19:59.844Z,6.47
2018-05-11T07:22:27.478Z,6.07
2018-05-11T07:24:54.961Z,5.30
2018-05-11T07:27:23.504Z,5.63
2018-05-11T07:29:51.052Z,5.60
2018-05-11T07:32:19.416Z,6.10
2018-05-11T07:34:47.728Z,5.67
2018-05-11T07:37:15.288Z,5.87
2018-05-11T07:39:42.828Z,6.90
2018-05-11T07:42:11.116Z,6.50
2018-05-11T07:44:38.676Z,6.83
2018-05-11T07:47:06.209Z,6.47
2018-05-11T07:49:33.772Z,6.47
2018-05-11T07:52:01.321Z,6.00
2018-05-11T07:54:28.881Z,6.63
2018-05-11T07:56:56.452Z,6.40
2018-05-11T07:59:26.354Z,6.90
2018-05-11T08:01:53.924Z,6.20
2018-05-11T08:04:21.476Z,5.80
2018-05-11T08:06:49.004Z,5.40
2018-05-11T08:09:17.584Z,5.57
2018-05-11T08:11:45.127Z,5.90
2018-05-11T08:14:13.725Z,5.10
2018-05-11T08:16:41.178Z,6.07
2018-05-11T08:19:08.725Z,5.83
2018-05-11T08:21:37.192Z,5.57
2018-05-11T08:24:04.751Z,5.43
2018-05-11T08:26:32.291Z,5.53
2018-05-11T08:28:59.844Z,5.00
2018-05-11T08:31:27.389Z,5.37
2018-05-11T08:33:54.948Z,5.33
2018-05-11T08:36:22.473Z,5.63
2018-05-11T08:38:50.045Z,5.00
2018-05-11T08:41:17.579Z,4.73
2018-05-11T08:43:46.916Z,5.70
2018-05-11T08:46:14.456Z,4.63
2018-05-11T08:48:42.054Z,4.27
2018-05-11T08:51:09.589Z,4.10
2018-05-11T08:53:37.124Z,4.27
2018-05-11T08:56:04.676Z,4.80
2018-05-11T08:58:32.968Z,4.37
2018-05-11T09:01:01.500Z,4.33
2018-05-11T09:03:29.060Z,4.77
2018-05-11T09:05:56.624Z,4.47
2018-05-11T09:08:25.233Z,4.35
2018-05-11T09:10:52.715Z,3.92
2018-05-11T09:13:20.240Z,5.03
2018-05-11T09:15:47.801Z,4.85
2018-05-11T09:18:15.340Z,4.47
2018-05-11T09:20:42.900Z,4.60
2018-05-11T09:23:10.453Z,5.18
2018-05-11T09:25:38.013Z,4.40
2018-05-11T09:28:05.542Z,4.80
2018-05-11T09:30:33.129Z,4.93
2018-05-11T09:33:00.664Z,5.13
2018-05-11T09:35:28.229Z,4.53
2018-05-11T09:37:55.792Z,4.67
2018-05-11T09:40:23.760Z,4.70
2018-05-11T09:42:51.329Z,5.23
2018-05-11T09:45:18.869Z,4.53
2018-05-11T09:47:46.404Z,4.60
2018-05-11T09:50:14.740Z,4.32
2018-05-11T09:52:42.264Z,5.03
2018-05-11T09:55:09.846Z,5.00
2018-05-11T09:57:37.415Z,4.37
2018-05-11T10:00:04.973Z,4.70
2018-05-11T10:02:32.520Z,3.85
2018-05-11T10:05:00.058Z,4.30
2018-05-11T10:07:28.405Z,4.25
2018-05-11T10:09:55.940Z,4.60
2018-05-11T10:12:23.491Z,4.10
2018-05-11T10:14:51.038Z,4.03
2018-05-11T10:17:18.604Z,4.90
2018-05-11T10:19:46.169Z,4.15
2018-05-11T10:22:13.714Z,4.85
2018-05-11T10:24:41.267Z,4.35
2018-05-11T10:27:08.817Z,4.30
2018-05-11T10:29:37.116Z,3.92
2018-05-11T10:32:04.668Z,4.37
2018-05-11T10:34:32.306Z,4.35
2018-05-11T10:36:59.800Z,4.07
2018-05-11T10:39:27.338Z,4.37
2018-05-11T10:41:55.658Z,4.45
2018-05-11T10:44:23.199Z,4.15
2018-05-11T10:46:50.751Z,4.00
2018-05-11T10:49:18.282Z,4.57
2018-05-11T10:51:45.841Z,4.50
2018-05-11T10:54:13.371Z,4.57
2018-05-11T10:56:40.944Z,4.15
2018-05-11T10:59:08.513Z,5.53
2018-05-11T11:01:36.046Z,4.75
2018-05-11T11:04:03.633Z,3.70
2018-05-11T11:06:31.308Z,4.65
2018-05-11T11:08:59.639Z,4.05
2018-05-11T11:11:27.174Z,4.27
2018-05-11T11:13:54.736Z,4.17
2018-05-11T11:16:22.279Z,4.67
2018-05-11T11:18:50.591Z,4.37
2018-05-11T11:21:18.125Z,4.20
2018-05-11T11:23:45.687Z,4.00
2018-05-11T11:26:13.216Z,4.20
2018-05-11T11:28:40.760Z,4.03
2018-05-11T11:31:08.305Z,3.83
2018-05-11T11:33:35.857Z,4.03
2018-05-11T11:36:03.396Z,3.92
2018-05-11T11:38:30.940Z,4.60
2018-05-11T11:40:59.234Z,3.67
2018-05-11T11:43:26.815Z,3.47
2018-05-11T11:45:54.349Z,3.60
2018-05-11T11:48:21.912Z,3.30
2018-05-11T11:50:49.648Z,4.03
2018-05-11T11:53:17.966Z,3.45
2018-05-11T11:55:45.497Z,4.15
2018-05-11T11:58:13.824Z,3.43
2018-05-11T12:00:41.361Z,3.80
2018-05-11T12:03:08.917Z,3.63
2018-05-11T12:05:36.453Z,4.07
2018-05-11T12:08:04.770Z,3.70
2018-05-11T12:10:32.320Z,3.70
2018-05-11T12:12:59.880Z,3.63
2018-05-11T12:15:27.442Z,3.80
2018-05-11T12:17:55.001Z,3.23
2018-05-11T12:20:22.577Z,4.27
2018-05-11T12:22:50.115Z,4.30
2018-05-11T12:25:17.673Z,3.47
2018-05-11T12:27:45.224Z,3.83
2018-05-11T12:30:13.709Z,3.90
2018-05-11T12:32:42.180Z,5.07
2018-05-11T12:35:09.732Z,4.03
2018-05-11T12:37:38.059Z,3.60
2018-05-11T12:40:05.623Z,4.30
2018-05-11T12:42:33.205Z,3.63
2018-05-11T12:45:00.771Z,3.87
2018-05-11T12:47:28.314Z,4.00
2018-05-11T12:49:55.872Z,3.93
2018-05-11T12:52:23.404Z,3.95
2018-05-11T12:54:50.961Z,4.27
2018-05-11T12:57:18.497Z,4.23
2018-05-11T12:59:46.815Z,4.43
2018-05-11T13:02:14.369Z,4.50
2018-05-11T13:04:41.920Z,4.37
2018-05-11T13:07:09.485Z,4.28
2018-05-11T13:09:37.049Z,4.13
2018-05-11T13:12:04.595Z,4.10
2018-05-11T13:14:33.064Z,4.23
2018-05-11T13:17:01.365Z,4.83
2018-05-11T13:19:28.918Z,4.50
2018-05-11T13:21:56.476Z,4.57
2018-05-11T13:24:24.034Z,4.50
2018-05-11T13:26:51.598Z,3.90
2018-05-11T13:29:19.136Z,4.30
2018-05-11T13:31:47.451Z,5.10
2018-05-11T13:34:14.987Z,4.50
2018-05-11T13:36:42.558Z,5.07
2018-05-11T13:39:10.090Z,3.83
2018-05-11T13:41:38.429Z,5.03
2018-05-11T13:44:06.972Z,5.00
2018-05-11T13:46:35.282Z,4.90
2018-05-11T13:49:08.572Z,4.73
2018-05-11T13:51:36.124Z,4.30
2018-05-11T13:54:03.663Z,4.50
2018-05-11T13:56:31.305Z,4.70
2018-05-11T13:58:58.906Z,3.97
2018-05-11T14:01:26.443Z,5.00
2018-05-11T14:03:53.971Z,3.90
2018-05-11T14:06:21.528Z,4.40
2018-05-11T14:08:49.062Z,4.70
2018-05-11T14:11:16.621Z,4.73
2018-05-11T14:13:44.190Z,4.87
2018-05-11T14:16:12.527Z,4.67
2018-05-11T14:18:40.072Z,4.83
2018-05-11T14:21:07.632Z,4.00
2018-05-11T14:23:35.197Z,4.13
2018-05-11T14:26:03.515Z,5.20
2018-05-11T14:28:31.045Z,5.33
2018-05-11T14:30:58.613Z,4.37
2018-05-11T14:33:26.158Z,4.97
2018-05-11T14:35:53.739Z,4.43
2018-05-11T14:38:21.276Z,4.10
2018-05-11T14:40:48.834Z,4.60
2018-05-11T14:43:17.139Z,5.00
2018-05-11T14:45:44.677Z,3.70
2018-05-11T14:48:12.227Z,4.23
2018-05-11T14:50:40.513Z,4.47
2018-05-11T14:53:08.180Z,4.40
2018-05-11T14:55:35.644Z,4.47
2018-05-11T14:58:03.200Z,4.60
2018-05-11T15:00:30.768Z,4.20
2018-05-11T15:02:58.346Z,4.47
2018-05-11T15:05:25.876Z,3.97
2018-05-11T15:07:53.467Z,4.37
2018-05-11T15:10:21.003Z,3.73
2018-05-11T15:12:48.581Z,3.90
2018-05-11T15:15:16.117Z,4.17
2018-05-11T15:17:43.689Z,4.13
2018-05-11T15:20:11.244Z,4.33
2018-05-11T15:22:38.809Z,5.03
2018-05-11T15:25:06.363Z,4.97
2018-05-11T15:27:33.920Z,4.97
2018-05-11T15:30:01.513Z,4.30
2018-05-11T15:32:29.073Z,4.30
2018-05-11T15:34:56.624Z,4.72
2018-05-11T15:37:24.171Z,4.20
2018-05-11T15:39:51.709Z,4.50
2018-05-11T15:42:20.233Z,3.90
2018-05-11T15:44:47.763Z,4.35
2018-05-11T15:47:15.456Z,3.77
2018-05-11T15:49:42.994Z,4.47
2018-05-11T15:52:11.478Z,4.57
2018-05-11T15:54:39.024Z,4.37
2018-05-11T15:57:06.609Z,4.27
2018-05-11T15:59:34.136Z,4.70
2018-05-11T16:02:02.425Z,4.43
2018-05-11T16:04:30.728Z,4.40
2018-05-11T16:06:58.289Z,4.30
2018-05-11T16:09:25.834Z,3.70
2018-05-11T16:11:53.512Z,3.97
2018-05-11T16:14:21.048Z,4.23
2018-05-11T16:16:48.593Z,3.63
2018-05-11T16:19:16.902Z,4.07
2018-05-11T16:21:44.471Z,3.67
2018-05-11T16:24:12.023Z,4.17
2018-05-11T16:26:39.557Z,4.00
2018-05-11T16:29:07.899Z,4.57
2018-05-11T16:31:35.433Z,4.27
2018-05-11T16:34:02.999Z,4.33
2018-05-11T16:36:30.549Z,3.47
2018-05-11T16:38:58.823Z,3.93
2018-05-11T16:41:26.378Z,4.27
2018-05-11T16:43:53.948Z,4.10
2018-05-11T16:46:21.508Z,3.97
2018-05-11T16:48:49.072Z,4.13
2018-05-11T16:51:17.477Z,3.73
2018-05-11T16:53:45.833Z,4.30
2018-05-11T16:56:13.388Z,4.80
2018-05-11T16:58:40.943Z,4.30
2018-05-11T17:01:08.507Z,3.53
2018-05-11T17:03:36.062Z,4.20
2018-05-11T17:06:03.630Z,4.53
2018-05-11T17:08:31.186Z,4.17
2018-05-11T17:10:58.730Z,4.13
2018-05-11T17:13:26.261Z,3.97
2018-05-11T17:15:53.814Z,4.57
2018-05-11T17:18:22.142Z,4.27
2018-05-11T17:20:50.426Z,3.97
2018-05-11T17:23:17.979Z,3.67
2018-05-11T17:25:45.530Z,3.83
2018-05-11T17:28:13.074Z,3.57
2018-05-11T17:30:41.398Z,4.07
2018-05-11T17:33:08.939Z,3.80
2018-05-11T17:35:36.491Z,3.60
2018-05-11T17:38:04.041Z,3.63
2018-05-11T17:40:31.603Z,3.43
2018-05-11T17:42:59.189Z,3.50
2018-05-11T17:45:26.742Z,3.80
2018-05-11T17:47:54.288Z,3.53
2018-05-11T17:50:21.845Z,3.47
2018-05-11T17:52:49.409Z,3.90
2018-05-11T17:55:16.971Z,3.23
2018-05-11T17:57:44.550Z,3.20
2018-05-11T18:00:12.212Z,3.50
2018-05-11T18:02:39.776Z,3.43
2018-05-11T18:05:07.320Z,3.50
2018-05-11T18:07:34.865Z,4.17
2018-05-11T18:10:03.298Z,3.80
2018-05-11T18:12:31.529Z,4.40
2018-05-11T18:14:59.102Z,3.33
2018-05-11T18:17:26.653Z,3.60
2018-05-11T18:19:54.216Z,4.20
2018-05-11T18:22:21.768Z,3.90
2018-05-11T18:24:49.324Z,3.83
2018-05-11T18:27:17.656Z,3.90
2018-05-11T18:29:45.193Z,3.43
2018-05-11T18:32:12.753Z,4.17
2018-05-11T18:34:40.290Z,4.40
2018-05-11T18:37:07.851Z,3.97
2018-05-11T18:39:35.452Z,3.80
2018-05-11T18:42:02.990Z,3.60
2018-05-11T18:44:30.540Z,4.13
2018-05-11T18:46:58.241Z,4.40
2018-05-11T18:49:25.670Z,4.30
2018-05-11T18:51:53.335Z,4.10
2018-05-11T18:54:21.089Z,3.70
2018-05-11T18:56:48.466Z,4.03
2018-05-11T18:59:16.005Z,4.87
2018-05-11T19:01:43.633Z,4.70
2018-05-11T19:04:11.239Z,4.07
2018-05-11T19:06:38.808Z,4.73
2018-05-11T19:09:06.369Z,4.33
2018-05-11T19:11:33.936Z,3.50
2018-05-11T19:14:01.477Z,3.90
2018-05-11T19:16:29.039Z,5.40
2018-05-11T19:18:56.578Z,3.93
2018-05-11T19:21:24.144Z,4.30
2018-05-11T19:23:51.691Z,3.97
2018-05-11T19:26:20.029Z,4.37
2018-05-11T19:28:47.764Z,4.57
2018-05-11T19:31:15.324Z,3.90
2018-05-11T19:33:42.850Z,4.23
2018-05-11T19:36:11.177Z,4.33
2018-05-11T19:38:38.721Z,4.63
2018-05-11T19:41:06.245Z,4.00
2018-05-11T19:43:34.573Z,4.67
2018-05-11T19:46:02.106Z,4.20
2018-05-11T19:48:29.678Z,4.20
2018-05-11T19:50:57.242Z,3.77
2018-05-11T19:53:24.808Z,4.33
2018-05-11T19:55:52.390Z,4.90
2018-05-11T19:58:19.949Z,4.23
2018-05-11T20:00:47.485Z,4.77
2018-05-11T20:03:15.029Z,4.67
2018-05-11T20:05:42.600Z,4.60
2018-05-11T20:08:10.458Z,5.00
2018-05-11T20:10:37.982Z,4.73
2018-05-11T20:13:06.311Z,4.87
2018-05-11T20:15:33.848Z,4.93
2018-05-11T20:18:01.409Z,4.47
2018-05-11T20:20:28.940Z,4.40
2018-05-11T20:22:57.265Z,4.90
2018-05-11T20:25:24.804Z,4.57
2018-05-11T20:27:52.385Z,4.60
2018-05-11T20:30:19.944Z,5.53
2018-05-11T20:32:47.540Z,5.30
2018-05-11T20:35:15.077Z,5.47
2018-05-11T20:37:42.670Z,5.47
2018-05-11T20:40:10.212Z,5.67
2018-05-11T20:42:37.768Z,5.20
2018-05-11T20:45:05.310Z,5.10
2018-05-11T20:47:32.867Z,5.40
2018-05-11T20:50:00.425Z,4.80
2018-05-11T20:52:28.008Z,5.90
2018-05-11T20:54:55.548Z,4.47
2018-05-11T20:57:23.112Z,5.03
2018-05-11T20:59:50.693Z,5.30
2018-05-11T21:02:18.219Z,5.20
2018-05-11T21:04:45.793Z,5.47
2018-05-11T21:07:13.337Z,5.47
2018-05-11T21:09:40.913Z,6.47
2018-05-11T21:12:08.440Z,5.63
2018-05-11T21:14:36.790Z,5.43
2018-05-11T21:17:04.347Z,5.00
2018-05-11T21:19:31.902Z,4.63
2018-05-11T21:21:59.438Z,5.50
2018-05-11T21:24:26.994Z,6.50
2018-05-11T21:26:54.516Z,5.23
2018-05-11T21:29:22.101Z,5.10
2018-05-11T21:31:49.635Z,5.33
2018-05-11T21:34:17.961Z,5.13
2018-05-11T21:36:45.486Z,4.93
2018-05-11T21:39:13.951Z,4.37
2018-05-11T21:41:43.257Z,5.33
2018-05-11T21:44:11.567Z,4.63
2018-05-11T21:46:39.101Z,4.53
2018-05-11T21:49:07.421Z,5.57
2018-05-11T21:51:34.961Z,5.07
2018-05-11T21:54:02.522Z,5.53
2018-05-11T21:56:30.071Z,5.00
2018-05-11T22:00:24.543Z,5.60
2018-05-11T22:02:52.828Z,5.13
2018-05-11T22:05:21.144Z,4.90
2018-05-11T22:07:48.696Z,5.37
2018-05-11T22:10:16.252Z,4.80
2018-05-11T22:12:43.791Z,4.97
2018-05-11T22:15:12.111Z,4.67
2018-05-11T22:17:39.642Z,5.80
2018-05-11T22:20:07.199Z,5.23
2018-05-11T22:22:34.728Z,5.40
2018-05-11T22:25:02.303Z,5.10
2018-05-11T22:27:30.609Z,5.10
2018-05-11T22:29:58.160Z,5.20
2018-05-11T22:32:25.727Z,5.03
2018-05-11T22:34:53.339Z,5.47
2018-05-11T22:37:20.877Z,5.23
2018-05-11T22:39:49.200Z,5.67
2018-05-11T22:42:17.497Z,5.53
2018-05-11T22:44:45.059Z,5.90
2018-05-11T22:47:12.606Z,5.23
2018-05-11T22:49:40.187Z,5.13
2018-05-11T22:52:07.710Z,6.10
2018-05-11T22:54:36.045Z,5.20
2018-05-11T22:57:03.580Z,5.60
2018-05-11T22:59:31.111Z,5.77
2018-05-11T23:01:59.446Z,5.77
2018-05-11T23:04:27.761Z,5.43
2018-05-11T23:06:55.328Z,5.77
2018-05-11T23:09:23.629Z,6.40
2018-05-11T23:11:51.188Z,5.83
2018-05-11T23:14:18.728Z,6.30
2018-05-11T23:16:47.057Z,6.43
2018-05-11T23:19:15.351Z,5.80
2018-05-11T23:21:42.915Z,5.83
2018-05-11T23:24:10.459Z,5.77
2018-05-11T23:26:38.016Z,5.53
2018-05-11T23:29:05.551Z,5.83
2018-05-11T23:31:33.122Z,5.80
2018-05-11T23:34:00.653Z,5.43
2018-05-11T23:36:28.970Z,7.10
2018-05-11T23:38:56.507Z,6.13
2018-05-11T23:41:24.053Z,7.90
2018-05-11T23:43:51.588Z,6.60
2018-05-11T23:46:19.185Z,6.83
2018-05-11T23:48:46.711Z,7.00
2018-05-11T23:51:14.279Z,7.23
2018-05-11T23:53:42.588Z,7.53
2018-05-11T23:56:10.180Z,7.17
2018-05-11T23:58:37.708Z,7.50
